Time;durP1;ratioP1;P1;durP2;ratioP2;P2;SDS_P1;SDS_P2;PMS_P1;PMS_P2;Temp;Humidity;BMP_temperature;BMP_pressure;BME280_temperature;BME280_humidity;BME280_pressure;Samples;Min_cycle;Max_cycle;Signal;HPM_P1;HPM_P2
2023/12/02 00:02:05;;;;;;;88.47;23.07;;;;;;;;;;5038920;28;20033;-66
2023/12/02 00:04:31;;;;;;;83.93;23.93;;;;;;;;;;5040882;28;20057;-66
2023/12/02 00:06:56;;;;;;;87.50;23.67;;;;;;;;;;5037393;28;20642;-66
2023/12/02 00:09:21;;;;;;;81.30;22.50;;;;;;;;;;5040376;28;20041;-72
2023/12/02 00:11:50;;;;;;;86.90;22.70;;;;;;;;;;5033835;28;20020;-72
2023/12/02 00:14:15;;;;;;;87.60;22.93;;;;;;;;;;5037131;28;20166;-73
2023/12/02 00:16:41;;;;;;;85.90;23.27;;;;;;;;;;5036574;28;20410;-73
2023/12/02 00:19:06;;;;;;;85.90;22.83;;;;;;;;;;5039763;28;20036;-71
2023/12/02 00:21:31;;;;;;;80.67;23.23;;;;;;;;;;5037450;28;20016;-70
2023/12/02 00:23:56;;;;;;;93.07;24.17;;;;;;;;;;5033033;28;20013;-71
2023/12/02 00:26:22;;;;;;;89.03;24.00;;;;;;;;;;5035790;28;20037;-72
2023/12/02 00:28:47;;;;;;;78.93;23.53;;;;;;;;;;5033007;28;20418;-73
2023/12/02 00:31:12;;;;;;;92.13;24.17;;;;;;;;;;5040573;28;20028;-72
2023/12/02 00:33:38;;;;;;;82.40;23.30;;;;;;;;;;5035068;28;20021;-71
2023/12/02 00:36:03;;;;;;;90.40;24.70;;;;;;;;;;5036328;28;20371;-72
2023/12/02 00:38:28;;;;;;;78.03;21.97;;;;;;;;;;5043755;28;20225;-69
2023/12/02 00:40:54;;;;;;;82.53;24.00;;;;;;;;;;5038262;28;20025;-73
2023/12/02 00:43:19;;;;;;;81.97;23.60;;;;;;;;;;5041294;28;20374;-73
2023/12/02 00:45:44;;;;;;;82.77;23.67;;;;;;;;;;5036790;28;20032;-72
2023/12/02 00:48:10;;;;;;;74.20;23.53;;;;;;;;;;5041882;28;20021;-72
2023/12/02 00:50:35;;;;;;;85.37;22.30;;;;;;;;;;5051054;28;20032;-71
2023/12/02 00:53:01;;;;;;;74.13;21.03;;;;;;;;;;5039604;28;20063;-72
2023/12/02 00:55:26;;;;;;;71.63;20.70;;;;;;;;;;5035553;28;20524;-73
2023/12/02 00:57:51;;;;;;;86.90;22.90;;;;;;;;;;5038614;28;20023;-72
2023/12/02 01:00:17;;;;;;;76.27;21.60;;;;;;;;;;5036411;28;20028;-73
2023/12/02 01:02:43;;;;;;;77.13;21.83;;;;;;;;;;5035898;28;20378;-73
2023/12/02 01:05:08;;;;;;;84.00;23.20;;;;;;;;;;5038273;28;20556;-72
2023/12/02 01:07:34;;;;;;;78.03;23.60;;;;;;;;;;5036411;28;20017;-70
2023/12/02 01:09:59;;;;;;;84.20;23.17;;;;;;;;;;5036904;28;20021;-73
2023/12/02 01:12:24;;;;;;;76.77;22.47;;;;;;;;;;5035943;28;20075;-70
2023/12/02 01:14:49;;;;;;;80.07;21.10;;;;;;;;;;5033762;28;20091;-73
2023/12/02 01:17:15;;;;;;;76.23;23.03;;;;;;;;;;5038333;28;20025;-73
2023/12/02 01:19:40;;;;;;;80.73;21.47;;;;;;;;;;5040084;28;20044;-66
2023/12/02 01:22:06;;;;;;;74.73;21.67;;;;;;;;;;5035796;28;20074;-67
2023/12/02 01:24:31;;;;;;;74.97;21.67;;;;;;;;;;5033831;28;20492;-66
2023/12/02 01:26:56;;;;;;;74.33;21.83;;;;;;;;;;5034281;28;20043;-68
2023/12/02 01:29:22;;;;;;;79.80;21.13;;;;;;;;;;5041123;28;20043;-67
2023/12/02 01:31:47;;;;;;;73.00;22.17;;;;;;;;;;5028603;28;20028;-65
2023/12/02 01:34:12;;;;;;;72.77;21.83;;;;;;;;;;5030735;28;20028;-67
2023/12/02 01:36:38;;;;;;;72.47;20.73;;;;;;;;;;5041765;28;20527;-68
2023/12/02 01:39:03;;;;;;;66.53;20.73;;;;;;;;;;5043950;28;20074;-66
2023/12/02 01:41:31;;;;;;;79.33;21.33;;;;;;;;;;5037430;28;20021;-66
2023/12/02 01:43:56;;;;;;;74.80;21.70;;;;;;;;;;5034153;28;20029;-65
2023/12/02 01:46:22;;;;;;;66.87;20.90;;;;;;;;;;5038539;28;20588;-66
2023/12/02 01:48:47;;;;;;;84.33;22.57;;;;;;;;;;5038782;28;20113;-68
2023/12/02 01:51:13;;;;;;;75.47;22.07;;;;;;;;;;5037997;28;20064;-67
2023/12/02 01:53:41;;;;;;;76.60;21.77;;;;;;;;;;5037728;28;20108;-67
2023/12/02 01:56:06;;;;;;;75.33;21.20;;;;;;;;;;5038794;28;20037;-66
2023/12/02 01:58:32;;;;;;;73.57;21.23;;;;;;;;;;5038371;28;20029;-66
2023/12/02 02:00:57;;;;;;;75.30;21.37;;;;;;;;;;5037272;28;20231;-65
2023/12/02 02:03:22;;;;;;;77.20;21.73;;;;;;;;;;5037273;28;20049;-66
2023/12/02 02:05:48;;;;;;;76.67;21.83;;;;;;;;;;5035584;28;20025;-67
2023/12/02 02:08:13;;;;;;;67.00;19.90;;;;;;;;;;5035531;28;20029;-65
2023/12/02 02:10:38;;;;;;;77.87;20.73;;;;;;;;;;5038502;28;20457;-65
2023/12/02 02:13:04;;;;;;;79.03;21.70;;;;;;;;;;5033549;28;20065;-68
2023/12/02 02:15:29;;;;;;;75.93;22.10;;;;;;;;;;5036445;28;20458;-65
2023/12/02 02:17:54;;;;;;;71.03;20.23;;;;;;;;;;5036217;28;20382;-64
2023/12/02 02:20:20;;;;;;;72.47;20.70;;;;;;;;;;5033607;28;20021;-64
2023/12/02 02:22:45;;;;;;;75.83;22.30;;;;;;;;;;5036000;28;20067;-65
2023/12/02 02:25:10;;;;;;;70.13;20.63;;;;;;;;;;5031937;28;20061;-65
2023/12/02 02:27:35;;;;;;;69.50;21.57;;;;;;;;;;5037405;28;20032;-65
2023/12/02 02:30:01;;;;;;;68.30;22.00;;;;;;;;;;5033267;28;20025;-65
2023/12/02 02:32:26;;;;;;;81.03;22.67;;;;;;;;;;5030936;28;20017;-66
2023/12/02 02:34:51;;;;;;;69.97;20.13;;;;;;;;;;5036377;28;20022;-66
2023/12/02 02:37:17;;;;;;;67.30;19.50;;;;;;;;;;5038154;28;20039;-65
2023/12/02 02:39:42;;;;;;;65.40;19.30;;;;;;;;;;5034027;28;20021;-65
2023/12/02 02:42:08;;;;;;;75.03;22.07;;;;;;;;;;5027315;28;20437;-68
2023/12/02 02:44:34;;;;;;;71.80;21.83;;;;;;;;;;5036846;28;20466;-69
2023/12/02 02:46:59;;;;;;;71.27;20.33;;;;;;;;;;5041044;28;20056;-66
2023/12/02 02:49:24;;;;;;;70.47;20.07;;;;;;;;;;5039488;28;20024;-65
2023/12/02 02:51:50;;;;;;;77.93;21.30;;;;;;;;;;5034433;28;20045;-65
2023/12/02 02:54:15;;;;;;;71.90;21.53;;;;;;;;;;5037047;28;20078;-65
2023/12/02 02:56:40;;;;;;;75.93;22.00;;;;;;;;;;5038126;28;20585;-66
2023/12/02 02:59:06;;;;;;;68.93;21.07;;;;;;;;;;5037617;28;20420;-66
2023/12/02 03:01:31;;;;;;;72.47;21.73;;;;;;;;;;5035804;28;20009;-65
2023/12/02 03:03:57;;;;;;;71.90;20.47;;;;;;;;;;5035479;28;20021;-66
2023/12/02 03:06:22;;;;;;;70.10;20.90;;;;;;;;;;5034463;28;20029;-66
2023/12/02 03:08:47;;;;;;;69.33;20.53;;;;;;;;;;5034239;28;20029;-67
2023/12/02 03:11:12;;;;;;;65.13;19.17;;;;;;;;;;5033981;28;20033;-66
2023/12/02 03:13:38;;;;;;;65.60;19.33;;;;;;;;;;5035026;28;20029;-67
2023/12/02 03:16:03;;;;;;;58.23;17.23;;;;;;;;;;5034570;28;20102;-65
2023/12/02 03:18:28;;;;;;;78.70;20.93;;;;;;;;;;5032151;28;20025;-67
2023/12/02 03:20:54;;;;;;;70.60;20.33;;;;;;;;;;5036336;28;20535;-65
2023/12/02 03:23:19;;;;;;;62.07;18.83;;;;;;;;;;5029157;28;20480;-67
2023/12/02 03:25:45;;;;;;;68.13;19.43;;;;;;;;;;5033151;28;20052;-66
2023/12/02 03:28:11;;;;;;;70.43;20.60;;;;;;;;;;5030600;28;20025;-66
2023/12/02 03:30:37;;;;;;;74.40;19.33;;;;;;;;;;5036760;28;20048;-66
2023/12/02 03:33:02;;;;;;;70.63;19.53;;;;;;;;;;5033849;28;20579;-66
2023/12/02 03:35:27;;;;;;;74.47;19.77;;;;;;;;;;5034742;28;20021;-66
2023/12/02 03:37:52;;;;;;;74.03;21.07;;;;;;;;;;5033980;28;20026;-74
2023/12/02 03:40:18;;;;;;;73.30;20.00;;;;;;;;;;5030332;28;20029;-66
2023/12/02 03:42:43;;;;;;;69.77;19.90;;;;;;;;;;5040161;28;20054;-65
2023/12/02 03:45:09;;;;;;;68.93;19.13;;;;;;;;;;5032379;28;20476;-67
2023/12/02 03:47:35;;;;;;;67.43;16.83;;;;;;;;;;5037854;28;20021;-65
2023/12/02 03:50:00;;;;;;;71.53;19.40;;;;;;;;;;5026466;28;20071;-66
2023/12/02 03:52:25;;;;;;;68.80;18.80;;;;;;;;;;5036149;28;20122;-67
2023/12/02 03:54:51;;;;;;;85.23;20.07;;;;;;;;;;5040742;28;20052;-66
2023/12/02 03:57:16;;;;;;;73.93;19.53;;;;;;;;;;5039233;28;20075;-65
2023/12/02 03:59:42;;;;;;;74.93;18.77;;;;;;;;;;5040448;28;20022;-65
2023/12/02 04:02:07;;;;;;;84.07;20.30;;;;;;;;;;5033742;28;20096;-65
2023/12/02 04:04:33;;;;;;;69.03;18.87;;;;;;;;;;5040244;28;20096;-66
2023/12/02 04:06:58;;;;;;;63.03;18.20;;;;;;;;;;5035765;28;20595;-66
2023/12/02 04:09:23;;;;;;;75.40;19.40;;;;;;;;;;5041296;28;20041;-67
2023/12/02 04:11:49;;;;;;;60.40;17.30;;;;;;;;;;5042467;28;20044;-65
2023/12/02 04:14:14;;;;;;;67.70;18.77;;;;;;;;;;5036899;28;20394;-65
2023/12/02 04:16:40;;;;;;;61.67;17.83;;;;;;;;;;5038990;28;20095;-65
2023/12/02 04:19:07;;;;;;;66.33;18.87;;;;;;;;;;5038602;28;20020;-67
2023/12/02 04:21:32;;;;;;;59.80;17.63;;;;;;;;;;5034138;28;20067;-65
2023/12/02 04:23:58;;;;;;;56.90;16.80;;;;;;;;;;5037284;28;20097;-65
2023/12/02 04:26:23;;;;;;;67.73;17.93;;;;;;;;;;5035031;28;20029;-65
2023/12/02 04:28:48;;;;;;;65.23;18.63;;;;;;;;;;5041613;28;20029;-66
2023/12/02 04:31:14;;;;;;;72.63;17.57;;;;;;;;;;5034926;28;20037;-65
2023/12/02 04:33:39;;;;;;;65.40;18.10;;;;;;;;;;5036280;28;20036;-65
2023/12/02 04:36:04;;;;;;;61.87;17.20;;;;;;;;;;5038016;28;20616;-65
2023/12/02 04:38:29;;;;;;;69.27;17.03;;;;;;;;;;5032412;28;20068;-64
2023/12/02 04:40:55;;;;;;;70.03;17.83;;;;;;;;;;5040670;28;20750;-67
2023/12/02 04:43:20;;;;;;;62.37;17.10;;;;;;;;;;5035504;28;20032;-65
2023/12/02 04:45:45;;;;;;;60.27;16.60;;;;;;;;;;5040362;28;20063;-66
2023/12/02 04:48:11;;;;;;;67.27;18.30;;;;;;;;;;5036244;28;20369;-72
2023/12/02 04:50:37;;;;;;;67.57;16.73;;;;;;;;;;5043864;28;20040;-72
2023/12/02 04:53:04;;;;;;;66.60;16.77;;;;;;;;;;5042940;28;20036;-72
2023/12/02 04:55:30;;;;;;;73.87;19.50;;;;;;;;;;5039786;28;20460;-72
2023/12/02 04:57:55;;;;;;;64.63;18.13;;;;;;;;;;5035099;28;20018;-72
2023/12/02 05:00:21;;;;;;;70.27;19.47;;;;;;;;;;5031284;28;20408;-71
2023/12/02 05:02:46;;;;;;;76.40;20.00;;;;;;;;;;5041660;28;20492;-71
2023/12/02 05:05:12;;;;;;;60.40;17.37;;;;;;;;;;5036994;28;20045;-69
2023/12/02 05:07:37;;;;;;;68.57;18.47;;;;;;;;;;5042191;28;20036;-71
2023/12/02 05:10:04;;;;;;;66.63;18.50;;;;;;;;;;5034489;28;20507;-69
2023/12/02 05:12:30;;;;;;;69.23;19.60;;;;;;;;;;5039372;28;20029;-71
2023/12/02 05:14:55;;;;;;;69.57;19.43;;;;;;;;;;5036982;28;20083;-69
2023/12/02 05:17:20;;;;;;;67.43;17.73;;;;;;;;;;5036316;28;20623;-72
2023/12/02 05:19:47;;;;;;;73.30;19.10;;;;;;;;;;5038686;28;20104;-72
2023/12/02 05:22:12;;;;;;;77.23;20.47;;;;;;;;;;5033581;28;20199;-71
2023/12/02 05:24:38;;;;;;;74.73;20.20;;;;;;;;;;5038910;28;20112;-71
2023/12/02 05:27:03;;;;;;;65.60;18.90;;;;;;;;;;5036199;28;20028;-70
2023/12/02 05:29:28;;;;;;;62.83;17.07;;;;;;;;;;5034343;28;20120;-70
2023/12/02 05:31:54;;;;;;;80.00;21.60;;;;;;;;;;5039003;28;20373;-71
2023/12/02 05:34:19;;;;;;;81.07;19.97;;;;;;;;;;5034794;28;20061;-69
2023/12/02 05:36:47;;;;;;;62.70;18.23;;;;;;;;;;5039329;28;20029;-72
2023/12/02 05:39:14;;;;;;;64.83;19.57;;;;;;;;;;5038510;28;20455;-71
2023/12/02 05:41:45;;;;;;;72.57;20.30;;;;;;;;;;5033722;28;20059;-71
2023/12/02 05:44:10;;;;;;;72.50;20.17;;;;;;;;;;5034724;28;20075;-71
2023/12/02 05:46:36;;;;;;;79.80;20.57;;;;;;;;;;5037860;28;20056;-70
2023/12/02 05:49:01;;;;;;;77.47;19.53;;;;;;;;;;5039064;28;20056;-69
2023/12/02 05:51:26;;;;;;;71.23;19.47;;;;;;;;;;5039472;28;20052;-69
2023/12/02 05:53:52;;;;;;;65.33;19.53;;;;;;;;;;5039364;28;20519;-70
2023/12/02 05:56:18;;;;;;;67.13;20.03;;;;;;;;;;5033710;28;20044;-70
2023/12/02 05:58:44;;;;;;;70.53;18.93;;;;;;;;;;5036687;28;20382;-64
2023/12/02 06:01:09;;;;;;;62.73;18.17;;;;;;;;;;5044251;28;20034;-65
2023/12/02 06:03:34;;;;;;;74.03;19.97;;;;;;;;;;5037759;28;20108;-65
2023/12/02 06:05:59;;;;;;;74.57;18.87;;;;;;;;;;5036311;28;20236;-67
2023/12/02 06:08:25;;;;;;;71.90;19.77;;;;;;;;;;5033047;28;20380;-65
2023/12/02 06:10:50;;;;;;;67.73;19.17;;;;;;;;;;5044935;28;20116;-64
2023/12/02 06:13:15;;;;;;;76.23;19.27;;;;;;;;;;5031740;28;20441;-64
2023/12/02 06:15:41;;;;;;;73.47;19.63;;;;;;;;;;5040630;28;20074;-65
2023/12/02 06:18:06;;;;;;;68.83;19.53;;;;;;;;;;5034843;28;20048;-65
2023/12/02 06:20:31;;;;;;;74.77;19.73;;;;;;;;;;5035329;28;20091;-66
2023/12/02 06:22:56;;;;;;;71.67;19.07;;;;;;;;;;5038261;28;20018;-64
2023/12/02 06:25:22;;;;;;;64.87;17.47;;;;;;;;;;5035127;28;20067;-64
2023/12/02 06:27:47;;;;;;;66.13;18.00;;;;;;;;;;5035913;28;20739;-65
2023/12/02 06:30:17;;;;;;;69.30;19.53;;;;;;;;;;5036846;28;20032;-66
2023/12/02 06:32:42;;;;;;;70.97;19.27;;;;;;;;;;5031922;28;20457;-66
2023/12/02 06:35:08;;;;;;;71.47;20.37;;;;;;;;;;5037636;28;20052;-65
2023/12/02 06:37:33;;;;;;;72.03;19.03;;;;;;;;;;5034786;28;20360;-66
2023/12/02 06:39:59;;;;;;;75.33;19.90;;;;;;;;;;5033557;28;20009;-64
2023/12/02 06:42:24;;;;;;;75.37;18.33;;;;;;;;;;5038995;28;20035;-65
2023/12/02 06:44:49;;;;;;;68.17;18.77;;;;;;;;;;5034922;28;20028;-66
2023/12/02 06:47:15;;;;;;;77.47;19.53;;;;;;;;;;5037672;28;20029;-65
2023/12/02 06:49:40;;;;;;;75.90;19.30;;;;;;;;;;5035602;28;20017;-67
2023/12/02 06:52:06;;;;;;;67.73;18.23;;;;;;;;;;5036793;28;20100;-65
2023/12/02 06:54:35;;;;;;;75.83;19.40;;;;;;;;;;5036547;28;20033;-64
2023/12/02 06:57:00;;;;;;;74.20;19.77;;;;;;;;;;5035384;28;20017;-66
2023/12/02 06:59:26;;;;;;;72.87;18.37;;;;;;;;;;5039811;28;20480;-68
2023/12/02 07:01:51;;;;;;;74.70;19.80;;;;;;;;;;5041615;28;20028;-68
2023/12/02 07:04:16;;;;;;;70.83;18.57;;;;;;;;;;5034985;28;20149;-65
2023/12/02 07:06:42;;;;;;;68.20;17.63;;;;;;;;;;5035742;28;20589;-65
2023/12/02 07:09:08;;;;;;;61.13;17.50;;;;;;;;;;5039540;28;20068;-67
2023/12/02 07:11:33;;;;;;;72.53;19.83;;;;;;;;;;5037358;28;20029;-67
2023/12/02 07:13:58;;;;;;;63.20;18.00;;;;;;;;;;5036766;28;20029;-67
2023/12/02 07:16:23;;;;;;;72.70;19.10;;;;;;;;;;5031817;28;20025;-67
2023/12/02 07:18:49;;;;;;;71.23;19.97;;;;;;;;;;5036828;28;20021;-68
2023/12/02 07:21:14;;;;;;;81.77;19.97;;;;;;;;;;5039812;28;20645;-68
2023/12/02 07:23:39;;;;;;;71.60;18.17;;;;;;;;;;5030888;28;20006;-65
2023/12/02 07:26:05;;;;;;;79.50;19.40;;;;;;;;;;5040685;28;20024;-68
2023/12/02 07:28:30;;;;;;;72.47;18.07;;;;;;;;;;5032899;28;20025;-66
2023/12/02 07:30:55;;;;;;;73.87;19.93;;;;;;;;;;5039137;28;20029;-66
2023/12/02 07:33:21;;;;;;;64.90;18.53;;;;;;;;;;5036012;28;20082;-68
2023/12/02 07:35:46;;;;;;;66.60;18.40;;;;;;;;;;5035938;28;20018;-65
2023/12/02 07:38:12;;;;;;;71.90;19.83;;;;;;;;;;5035080;28;20212;-67
2023/12/02 07:40:37;;;;;;;65.63;17.47;;;;;;;;;;5032997;28;20051;-66
2023/12/02 07:43:03;;;;;;;70.97;20.13;;;;;;;;;;5039316;28;20193;-67
2023/12/02 07:45:28;;;;;;;65.47;18.47;;;;;;;;;;5036760;28;20021;-66
2023/12/02 07:47:54;;;;;;;76.10;20.37;;;;;;;;;;5035067;28;20021;-67
2023/12/02 07:50:19;;;;;;;77.63;19.73;;;;;;;;;;5039965;28;20100;-68
2023/12/02 07:52:44;;;;;;;71.37;17.50;;;;;;;;;;5040670;28;20287;-66
2023/12/02 07:55:10;;;;;;;80.77;20.47;;;;;;;;;;5039200;28;20470;-66
2023/12/02 07:57:36;;;;;;;69.83;18.70;;;;;;;;;;5041554;28;20063;-66
2023/12/02 08:00:01;;;;;;;72.70;19.07;;;;;;;;;;5037038;28;20078;-66
2023/12/02 08:02:26;;;;;;;65.53;16.07;;;;;;;;;;5039495;28;20025;-66
2023/12/02 08:04:52;;;;;;;70.23;18.90;;;;;;;;;;5042273;28;20024;-68
2023/12/02 08:07:18;;;;;;;65.67;17.47;;;;;;;;;;5039429;28;20066;-68
2023/12/02 08:09:43;;;;;;;75.50;18.80;;;;;;;;;;5042593;28;20470;-67
2023/12/02 08:12:09;;;;;;;73.30;19.20;;;;;;;;;;5040878;28;20033;-66
2023/12/02 08:14:34;;;;;;;72.77;18.83;;;;;;;;;;5037209;28;20116;-65
2023/12/02 08:16:59;;;;;;;77.13;17.77;;;;;;;;;;5038617;28;20033;-65
2023/12/02 08:19:24;;;;;;;72.77;18.90;;;;;;;;;;5042425;28;20033;-72
2023/12/02 08:21:50;;;;;;;64.13;18.50;;;;;;;;;;5040488;28;20024;-72
2023/12/02 08:24:16;;;;;;;72.43;18.80;;;;;;;;;;5040854;28;20369;-71
2023/12/02 08:26:42;;;;;;;67.00;17.23;;;;;;;;;;5039942;28;20219;-70
2023/12/02 08:29:07;;;;;;;62.90;19.40;;;;;;;;;;5039155;28;20059;-71
2023/12/02 08:31:32;;;;;;;71.40;19.47;;;;;;;;;;5034596;28;20036;-72
2023/12/02 08:33:57;;;;;;;67.63;18.77;;;;;;;;;;5036522;28;20025;-71
2023/12/02 08:36:23;;;;;;;73.07;20.50;;;;;;;;;;5039682;28;20019;-70
2023/12/02 08:38:48;;;;;;;68.43;18.60;;;;;;;;;;5037752;28;20027;-70
2023/12/02 08:41:13;;;;;;;72.43;20.00;;;;;;;;;;5040094;28;20022;-70
2023/12/02 08:43:40;;;;;;;71.93;19.97;;;;;;;;;;5036374;28;20012;-71
2023/12/02 08:46:11;;;;;;;75.00;19.53;;;;;;;;;;5033348;28;20022;-70
2023/12/02 08:48:37;;;;;;;64.75;18.85;;;;;;;;;;5039172;28;20025;-70
2023/12/02 08:51:02;;;;;;;73.73;20.50;;;;;;;;;;5035664;28;20068;-71
2023/12/02 08:53:27;;;;;;;68.03;19.40;;;;;;;;;;5039262;28;20017;-71
2023/12/02 08:55:53;;;;;;;67.57;18.30;;;;;;;;;;5036970;28;20092;-70
2023/12/02 08:58:18;;;;;;;70.73;19.33;;;;;;;;;;5038199;28;20021;-71
2023/12/02 09:00:43;;;;;;;66.63;19.73;;;;;;;;;;5042211;28;20014;-71
2023/12/02 09:03:09;;;;;;;64.87;19.03;;;;;;;;;;5040547;28;20033;-68
2023/12/02 09:05:34;;;;;;;76.80;22.03;;;;;;;;;;5038928;28;20101;-71
2023/12/02 09:08:01;;;;;;;70.97;19.20;;;;;;;;;;5043025;28;20025;-71
2023/12/02 09:10:26;;;;;;;76.57;21.87;;;;;;;;;;5036594;28;20056;-71
2023/12/02 09:12:51;;;;;;;71.40;21.30;;;;;;;;;;5039632;28;20337;-71
2023/12/02 09:15:16;;;;;;;76.73;19.83;;;;;;;;;;5042228;28;20048;-72
2023/12/02 09:18:00;;;;;;;62.87;18.23;;;;;;;;;;5041043;28;20028;-69
2023/12/02 09:20:45;;;;;;;73.43;19.83;;;;;;;;;;5039505;28;20057;-69
2023/12/02 09:23:11;;;;;;;68.27;20.10;;;;;;;;;;5035458;28;20120;-72
2023/12/02 09:25:38;;;;;;;72.47;21.50;;;;;;;;;;5036412;28;20151;-71
2023/12/02 09:28:06;;;;;;;63.67;20.63;;;;;;;;;;5035519;28;20075;-69
2023/12/02 09:30:36;;;;;;;72.60;20.37;;;;;;;;;;5039696;28;20686;-72
2023/12/02 09:33:01;;;;;;;66.47;20.77;;;;;;;;;;5037582;28;20026;-74
2023/12/02 09:35:27;;;;;;;67.37;21.67;;;;;;;;;;5039499;28;20513;-73
2023/12/02 09:37:52;;;;;;;70.03;19.73;;;;;;;;;;5041683;28;20708;-72
2023/12/02 09:40:24;;;;;;;65.00;19.90;;;;;;;;;;5032693;28;20025;-72
2023/12/02 09:42:53;;;;;;;60.87;19.87;;;;;;;;;;5035858;28;20478;-70
2023/12/02 09:45:24;;;;;;;70.47;21.27;;;;;;;;;;5036880;28;20025;-71
2023/12/02 09:47:54;;;;;;;57.50;18.17;;;;;;;;;;5036554;28;20021;-71
2023/12/02 09:50:21;;;;;;;63.67;19.97;;;;;;;;;;5036625;28;20500;-72
2023/12/02 09:52:58;;;;;;;70.53;21.57;;;;;;;;;;5034519;28;20380;-73
2023/12/02 09:55:26;;;;;;;61.30;18.73;;;;;;;;;;5032452;28;20386;-70
2023/12/02 09:57:51;;;;;;;56.27;18.57;;;;;;;;;;5037068;28;20493;-71
2023/12/02 10:00:22;;;;;;;56.50;19.50;;;;;;;;;;5039545;28;20025;-70
2023/12/02 10:03:09;;;;;;;53.95;18.77;;;;;;;;;;5037973;28;20025;-73
2023/12/02 10:05:40;;;;;;;58.60;19.27;;;;;;;;;;5038784;28;20032;-71
2023/12/02 10:08:06;;;;;;;61.03;18.83;;;;;;;;;;5039479;28;20040;-72
2023/12/02 10:10:40;;;;;;;58.63;19.17;;;;;;;;;;5042380;28;20038;-71
2023/12/02 10:13:11;;;;;;;61.90;19.27;;;;;;;;;;5036869;28;20029;-73
2023/12/02 10:15:37;;;;;;;65.03;20.05;;;;;;;;;;5039032;28;20013;-74
2023/12/02 10:18:15;;;;;;;57.03;18.17;;;;;;;;;;5038223;28;20347;-74
2023/12/02 10:20:41;;;;;;;56.70;17.43;;;;;;;;;;5036483;28;20461;-70
2023/12/02 10:23:15;;;;;;;58.53;17.77;;;;;;;;;;5037667;28;20049;-70
2023/12/02 10:25:46;;;;;;;56.83;17.20;;;;;;;;;;5041776;28;20024;-72
2023/12/02 10:28:12;;;;;;;;;;;;;;;;;;5037340;28;20031;-71
2023/12/02 10:30:42;;;;;;;56.93;18.27;;;;;;;;;;5036687;28;20342;-73
2023/12/02 10:33:16;;;;;;;53.40;17.77;;;;;;;;;;5034188;28;20060;-72
2023/12/02 10:35:42;;;;;;;59.60;19.33;;;;;;;;;;5037164;28;20420;-72
2023/12/02 10:38:27;;;;;;;58.13;19.00;;;;;;;;;;5030511;28;20014;-69
2023/12/02 10:40:58;;;;;;;56.97;18.07;;;;;;;;;;5036107;28;20017;-70
2023/12/02 10:43:30;;;;;;;46.83;15.82;;;;;;;;;;5037576;28;20057;-71
2023/12/02 10:45:55;;;;;;;55.80;17.13;;;;;;;;;;5034748;28;20497;-72
2023/12/02 10:48:21;;;;;;;59.77;19.13;;;;;;;;;;5039638;28;20080;-73
2023/12/02 10:50:46;;;;;;;52.70;16.70;;;;;;;;;;5043787;28;20051;-70
2023/12/02 10:53:14;;;;;;;61.57;19.07;;;;;;;;;;5036871;28;20021;-70
2023/12/02 10:55:40;;;;;;;62.23;18.63;;;;;;;;;;5034815;28;20014;-71
2023/12/02 10:58:06;;;;;;;51.33;16.83;;;;;;;;;;5037308;28;20442;-71
2023/12/02 11:00:35;;;;;;;52.57;17.40;;;;;;;;;;5033786;28;20474;-70
2023/12/02 11:03:03;;;;;;;57.83;18.93;;;;;;;;;;5031151;28;20032;-71
2023/12/02 11:05:33;;;;;;;52.57;17.97;;;;;;;;;;5038994;28;20055;-72
2023/12/02 11:08:06;;;;;;;56.17;19.13;;;;;;;;;;5037396;28;20674;-71
2023/12/02 11:10:42;;;;;;;53.60;17.70;;;;;;;;;;5035575;28;20044;-72
2023/12/02 11:13:12;;;;;;;58.10;19.13;;;;;;;;;;5035672;28;20479;-72
2023/12/02 11:15:44;;;;;;;56.37;19.30;;;;;;;;;;5038371;28;20499;-69
2023/12/02 11:18:14;;;;;;;59.33;19.60;;;;;;;;;;5037895;28;20152;-71
2023/12/02 11:20:39;;;;;;;57.43;18.87;;;;;;;;;;5039168;28;20061;-67
2023/12/02 11:23:16;;;;;;;48.67;16.20;;;;;;;;;;5039366;28;20410;-69
2023/12/02 11:26:00;;;;;;;55.63;18.90;;;;;;;;;;5035508;28;20522;-68
2023/12/02 11:28:28;;;;;;;49.67;16.80;;;;;;;;;;5036769;28;20035;-70
2023/12/02 11:30:57;;;;;;;53.27;17.00;;;;;;;;;;5033243;28;20036;-70
2023/12/02 11:33:42;;;;;;;57.80;19.20;;;;;;;;;;5036801;28;20096;-72
2023/12/02 11:36:08;;;;;;;53.13;17.77;;;;;;;;;;5034309;28;20052;-71
2023/12/02 11:38:37;;;;;;;58.10;19.00;;;;;;;;;;5033059;28;20482;-71
2023/12/02 11:41:11;;;;;;;57.80;18.97;;;;;;;;;;5031753;28;20126;-71
2023/12/02 11:43:45;;;;;;;52.73;17.80;;;;;;;;;;5034901;28;20038;-71
2023/12/02 11:46:22;;;;;;;52.03;17.53;;;;;;;;;;5034333;28;20167;-72
2023/12/02 11:49:06;;;;;;;54.13;20.20;;;;;;;;;;5030254;28;20037;-69
2023/12/02 11:51:38;;;;;;;47.93;16.37;;;;;;;;;;5030986;28;20052;-64
2023/12/02 11:54:15;;;;;;;39.27;14.70;;;;;;;;;;5033054;28;20053;-63
2023/12/02 11:56:47;;;;;;;46.17;16.77;;;;;;;;;;5034761;28;20010;-63
2023/12/02 11:59:16;;;;;;;56.87;18.87;;;;;;;;;;5030503;28;20074;-65
2023/12/02 12:01:44;;;;;;;49.43;16.30;;;;;;;;;;5027990;28;20508;-63
2023/12/02 12:04:35;;;;;;;47.50;18.33;;;;;;;;;;5035455;28;20021;-63
2023/12/02 12:07:06;;;;;;;58.33;20.52;;;;;;;;;;5036711;28;20017;-63
2023/12/02 12:09:37;;;;;;;49.80;17.88;;;;;;;;;;5030820;28;20025;-63
2023/12/02 12:12:04;;;;;;;54.90;16.95;;;;;;;;;;5029872;28;20083;-64
2023/12/02 12:14:31;;;;;;;49.97;18.67;;;;;;;;;;5041251;28;20647;-62
2023/12/02 12:16:56;;;;;;;48.53;18.50;;;;;;;;;;5040584;28;20025;-64
2023/12/02 12:19:21;;;;;;;51.83;18.67;;;;;;;;;;5041182;28;20346;-62
2023/12/02 12:21:47;;;;;;;57.60;18.73;;;;;;;;;;5036618;28;20021;-62
2023/12/02 12:24:13;;;;;;;54.97;18.97;;;;;;;;;;5040336;28;20032;-63
2023/12/02 12:26:38;;;;;;;52.37;18.93;;;;;;;;;;5041356;28;20017;-62
2023/12/02 12:29:04;;;;;;;56.10;19.13;;;;;;;;;;5040142;28;20118;-64
2023/12/02 12:31:30;;;;;;;51.33;17.43;;;;;;;;;;5041147;28;20028;-64
2023/12/02 12:33:55;;;;;;;48.00;18.73;;;;;;;;;;5039925;28;20523;-63
2023/12/02 12:36:21;;;;;;;49.70;18.03;;;;;;;;;;5039226;28;20059;-63
2023/12/02 12:38:47;;;;;;;55.77;19.07;;;;;;;;;;5036390;28;20029;-64
2023/12/02 12:41:12;;;;;;;54.77;17.93;;;;;;;;;;5039972;28;20032;-65
2023/12/02 12:43:37;;;;;;;54.07;18.80;;;;;;;;;;5040834;28;20021;-64
2023/12/02 12:46:03;;;;;;;50.07;18.13;;;;;;;;;;5038274;28;20365;-62
2023/12/02 12:48:28;;;;;;;54.63;19.87;;;;;;;;;;5036520;28;20032;-63
2023/12/02 12:50:55;;;;;;;47.67;16.73;;;;;;;;;;5036042;28;20025;-65
2023/12/02 12:53:24;;;;;;;49.73;17.63;;;;;;;;;;5036695;28;20033;-63
2023/12/02 12:55:54;;;;;;;52.67;17.93;;;;;;;;;;5038606;28;20485;-65
2023/12/02 12:58:21;;;;;;;50.27;19.13;;;;;;;;;;5036261;28;20020;-64
2023/12/02 13:00:48;;;;;;;49.60;17.80;;;;;;;;;;5038626;28;20485;-65
2023/12/02 13:03:45;;;;;;;47.87;17.40;;;;;;;;;;5036633;28;20017;-65
2023/12/02 13:06:20;;;;;;;47.00;17.33;;;;;;;;;;5014034;28;20628;-66
2023/12/02 13:08:50;;;;;;;45.20;16.63;;;;;;;;;;5032030;28;20017;-63
2023/12/02 13:11:20;;;;;;;45.27;17.47;;;;;;;;;;5037827;28;20707;-62
2023/12/02 13:13:48;;;;;;;41.17;15.20;;;;;;;;;;5037635;28;20514;-64
2023/12/02 13:16:13;;;;;;;41.87;16.50;;;;;;;;;;5043324;28;20017;-63
2023/12/02 13:18:39;;;;;;;43.17;15.93;;;;;;;;;;5039082;28;20096;-62
2023/12/02 13:21:05;;;;;;;43.30;15.50;;;;;;;;;;5036946;28;20017;-62
2023/12/02 13:23:31;;;;;;;44.43;16.13;;;;;;;;;;5037904;28;20021;-62
2023/12/02 13:25:59;;;;;;;38.47;15.23;;;;;;;;;;5040971;28;20047;-63
2023/12/02 13:28:32;;;;;;;38.43;14.77;;;;;;;;;;5040343;28;20021;-63
2023/12/02 13:31:00;;;;;;;35.73;14.17;;;;;;;;;;5037611;28;20107;-63
2023/12/02 13:33:45;;;;;;;36.30;13.40;;;;;;;;;;5037519;28;20028;-63
2023/12/02 13:36:12;;;;;;;34.23;13.43;;;;;;;;;;5036739;28;20032;-64
2023/12/02 13:38:42;;;;;;;39.13;14.63;;;;;;;;;;5036272;28;20104;-62
2023/12/02 13:41:10;;;;;;;42.80;15.43;;;;;;;;;;5038313;28;20470;-63
2023/12/02 13:43:55;;;;;;;39.10;14.63;;;;;;;;;;5038140;28;20040;-62
2023/12/02 13:46:25;;;;;;;46.07;14.07;;;;;;;;;;5038136;28;20509;-63
2023/12/02 13:49:16;;;;;;;43.13;16.20;;;;;;;;;;5034601;28;20017;-64
2023/12/02 13:51:45;;;;;;;47.97;17.00;;;;;;;;;;5036853;28;20049;-65
2023/12/02 13:54:10;;;;;;;47.53;15.67;;;;;;;;;;5034548;28;20056;-63
2023/12/02 13:56:46;;;;;;;39.80;14.60;;;;;;;;;;5032579;28;20405;-63
2023/12/02 13:59:20;;;;;;;45.10;15.17;;;;;;;;;;5039508;28;20096;-64
2023/12/02 14:01:52;;;;;;;41.73;15.03;;;;;;;;;;5035040;28;20028;-63
2023/12/02 14:04:17;;;;;;;;;;;;;;;;;;5037119;28;20074;-65
2023/12/02 14:06:49;;;;;;;41.47;14.68;;;;;;;;;;5034949;28;20269;-65
2023/12/02 14:09:19;;;;;;;41.80;14.97;;;;;;;;;;5036230;28;20064;-67
2023/12/02 14:11:51;;;;;;;41.13;14.90;;;;;;;;;;5035911;28;20029;-63
2023/12/02 14:14:25;;;;;;;43.15;15.07;;;;;;;;;;5040328;28;20508;-63
2023/12/02 14:17:00;;;;;;;42.70;15.00;;;;;;;;;;5031205;28;20061;-64
2023/12/02 14:19:44;;;;;;;42.00;14.90;;;;;;;;;;5037394;28;20040;-64